Time,TemperatureF,DewpointF,PressureIn,WindDirection,WindDirectionDegrees,WindSpeedMPH,WindSpeedGustMPH,Humidity,HourlyPrecipIn,Conditions,Clouds,dailyrainin,SolarRadiationWatts/m^2,SoftwareType,DateUTC
2013-02-03 00:01:00,45.5,44.4,30.13,SSW,204,15.0,23.0,96,0.01,RA,,0.00,0.0,WeatherDisplay:10.37,2013-02-03 00:01:00,
2013-02-03 00:11:00,45.7,44.4,30.12,SSW,202,16.0,23.0,95,0.00,CLR,,0.00,0.0,WeatherDisplay:10.37,2013-02-03 00:11:00,
2013-02-03 00:16:00,45.9,44.8,30.12,SSW,203,16.0,27.0,96,0.00,CLR,,0.00,0.0,WeatherDisplay:10.37,2013-02-03 00:16:00,
2013-02-03 00:21:00,46.0,44.9,30.12,SSW,208,17.0,23.0,96,0.00,CLR,,0.00,0.0,WeatherDisplay:10.37,2013-02-03 00:21:00,
2013-02-03 00:31:00,46.2,45.1,30.12,SSW,203,16.0,28.0,96,0.00,CLR,,0.00,0.0,WeatherDisplay:10.37,2013-02-03 00:31:00,
2013-02-03 00:41:00,46.4,45.3,30.12,SSW,201,15.0,24.0,96,0.00,CLR,,0.00,0.0,WeatherDisplay:10.37,2013-02-03 00:41:00,
2013-02-03 00:46:00,46.5,45.4,30.12,SSW,199,14.0,23.0,96,0.00,CLR,,0.00,0.0,WeatherDisplay:10.37,2013-02-03 00:46:00,
2013-02-03 00:51:00,46.7,45.6,30.12,SSW,201,10.0,22.0,96,0.00,CLR,,0.00,0.0,WeatherDisplay:10.37,2013-02-03 00:51:00,
2013-02-03 01:01:00,47.1,46.0,30.12,SSW,209,12.0,24.0,96,0.00,CLR,,0.00,0.0,WeatherDisplay:10.37,2013-02-03 01:01:00,
2013-02-03 01:11:00,47.8,46.7,30.12,SW,215,15.0,24.0,96,0.00,CLR,,0.00,0.0,WeatherDisplay:10.37,2013-02-03 01:11:00,
2013-02-03 01:16:00,48.0,47.2,30.12,SW,220,13.0,22.0,97,0.00,CLR,,0.00,0.0,WeatherDisplay:10.37,2013-02-03 01:16:00,
2013-02-03 01:21:00,48.3,47.2,30.12,SW,228,17.0,25.0,96,0.00,CLR,,0.00,0.0,WeatherDisplay:10.37,2013-02-03 01:21:00,
2013-02-03 01:26:00,48.5,47.4,30.13,SW,229,13.0,21.0,96,0.00,CLR,,0.00,0.0,WeatherDisplay:10.37,2013-02-03 01:26:00,
2013-02-03 01:31:00,48.6,47.5,30.13,SW,230,13.0,20.0,96,0.01,RA,,0.01,0.0,WeatherDisplay:10.37,2013-02-03 01:31:00,
2013-02-03 01:41:00,49.1,48.0,30.13,SW,236,15.0,23.0,96,0.00,CLR,,0.01,0.0,WeatherDisplay:10.37,2013-02-03 01:41:00,
2013-02-03 01:46:00,49.2,48.1,30.13,WSW,239,12.0,22.0,96,0.00,CLR,,0.01,0.0,WeatherDisplay:10.37,2013-02-03 01:46:00,
2013-02-03 01:51:00,49.3,48.2,30.13,WSW,244,14.0,22.0,96,0.00,CLR,,0.01,0.0,WeatherDisplay:10.37,2013-02-03 01:51:00,
2013-02-03 01:56:00,49.3,48.2,30.13,WSW,239,12.0,21.0,96,0.00,CLR,,0.01,0.0,WeatherDisplay:10.37,2013-02-03 01:56:00,
2013-02-03 02:01:00,49.3,48.2,30.13,SW,230,12.0,20.0,96,0.00,CLR,,0.01,0.0,WeatherDisplay:10.37,2013-02-03 02:01:00,
2013-02-03 02:11:00,49.3,48.2,30.13,WSW,241,13.0,20.0,96,0.00,CLR,,0.01,0.0,WeatherDisplay:10.37,2013-02-03 02:11:00,
2013-02-03 02:16:00,49.3,48.2,30.13,WSW,245,9.0,17.0,96,0.00,CLR,,0.01,0.0,WeatherDisplay:10.37,2013-02-03 02:16:00,
2013-02-03 02:26:00,49.2,48.1,30.12,WSW,238,15.0,24.0,96,0.00,CLR,,0.01,0.0,WeatherDisplay:10.37,2013-02-03 02:26:00,
2013-02-03 02:31:00,49.2,48.1,30.12,WSW,239,15.0,20.0,96,0.00,CLR,,0.01,0.0,WeatherDisplay:10.37,2013-02-03 02:31:00,
2013-02-03 02:36:00,49.2,48.1,30.11,WSW,245,15.0,21.0,96,0.00,CLR,,0.01,0.0,WeatherDisplay:10.37,2013-02-03 02:36:00,
2013-02-03 02:46:00,49.1,48.0,30.11,WSW,241,15.0,23.0,96,0.00,CLR,,0.01,0.0,WeatherDisplay:10.37,2013-02-03 02:46:00,
2013-02-03 02:51:00,49.2,48.1,30.12,WSW,244,13.0,23.0,96,0.00,CLR,,0.01,0.0,WeatherDisplay:10.37,2013-02-03 02:51:00,
2013-02-03 02:56:00,49.1,48.0,30.12,WSW,247,15.0,24.0,96,0.00,CLR,,0.01,0.0,WeatherDisplay:10.37,2013-02-03 02:56:00,
2013-02-03 03:01:00,49.1,48.0,30.11,WSW,245,16.0,23.0,96,0.00,CLR,,0.01,0.0,WeatherDisplay:10.37,2013-02-03 03:01:00,
2013-02-03 03:11:00,49.1,48.0,30.12,WSW,248,10.0,20.0,96,0.00,CLR,,0.01,0.0,WeatherDisplay:10.37,2013-02-03 03:11:00,
2013-02-03 03:16:00,49.1,48.0,30.12,WSW,243,14.0,20.0,96,0.00,CLR,,0.01,0.0,WeatherDisplay:10.37,2013-02-03 03:16:00,
2013-02-03 03:21:00,49.1,48.0,30.11,WSW,244,10.0,20.0,96,0.00,CLR,,0.01,0.0,WeatherDisplay:10.37,2013-02-03 03:21:00,
2013-02-03 03:26:00,49.1,48.0,30.11,WSW,248,9.0,16.0,96,0.00,CLR,,0.01,0.0,WeatherDisplay:10.37,2013-02-03 03:26:00,
2013-02-03 03:31:00,49.1,48.0,30.11,WSW,246,10.0,16.0,96,0.00,CLR,,0.01,0.0,WeatherDisplay:10.37,2013-02-03 03:31:00,
2013-02-03 03:41:00,49.1,48.0,30.11,WSW,247,9.0,16.0,96,0.00,CLR,,0.01,0.0,WeatherDisplay:10.37,2013-02-03 03:41:00,
2013-02-03 03:46:00,49.1,48.0,30.10,WSW,248,9.0,15.0,96,0.00,CLR,,0.01,0.0,WeatherDisplay:10.37,2013-02-03 03:46:00,
2013-02-03 03:56:00,49.0,47.9,30.09,SW,233,12.0,20.0,96,0.00,CLR,,0.01,0.0,WeatherDisplay:10.37,2013-02-03 03:56:00,
2013-02-03 04:01:00,49.0,47.9,30.10,WSW,242,10.0,20.0,96,0.00,CLR,,0.01,0.0,WeatherDisplay:10.37,2013-02-03 04:01:00,
2013-02-03 04:11:00,49.0,47.9,30.10,WSW,246,7.0,18.0,96,0.00,CLR,,0.01,0.0,WeatherDisplay:10.37,2013-02-03 04:11:00,
2013-02-03 04:16:00,48.9,47.8,30.10,WSW,251,9.0,16.0,96,0.00,CLR,,0.01,0.0,WeatherDisplay:10.37,2013-02-03 04:16:00,
2013-02-03 04:21:00,49.0,47.9,30.09,WSW,253,9.0,20.0,96,0.00,CLR,,0.01,0.0,WeatherDisplay:10.37,2013-02-03 04:21:00,
2013-02-03 04:31:00,48.9,47.8,30.09,WSW,258,10.0,16.0,96,0.00,CLR,,0.01,0.0,WeatherDisplay:10.37,2013-02-03 04:31:00,
2013-02-03 04:41:00,48.9,47.8,30.08,WSW,255,14.0,21.0,96,0.00,CLR,,0.01,0.0,WeatherDisplay:10.37,2013-02-03 04:41:00,
2013-02-03 04:46:00,49.0,47.9,30.09,WSW,252,10.0,18.0,96,0.00,CLR,,0.01,0.0,WeatherDisplay:10.37,2013-02-03 04:46:00,
2013-02-03 04:51:00,49.0,47.9,30.08,West,259,13.0,20.0,96,0.00,CLR,,0.01,0.0,WeatherDisplay:10.37,2013-02-03 04:51:00,
2013-02-03 04:56:00,49.0,47.9,30.08,West,260,13.0,21.0,96,0.00,CLR,,0.01,0.0,WeatherDisplay:10.37,2013-02-03 04:56:00,
2013-02-03 05:01:00,49.0,47.9,30.08,WSW,255,15.0,20.0,96,0.00,CLR,,0.01,0.0,WeatherDisplay:10.37,2013-02-03 05:01:00,
2013-02-03 05:06:00,49.0,47.9,30.08,WSW,253,12.0,20.0,96,0.00,CLR,,0.01,0.0,WeatherDisplay:10.37,2013-02-03 05:06:00,
2013-02-03 05:11:00,49.0,47.9,30.09,WSW,252,10.0,24.0,96,0.00,CLR,,0.01,0.0,WeatherDisplay:10.37,2013-02-03 05:11:00,
2013-02-03 05:16:00,48.9,47.8,30.08,WSW,246,14.0,21.0,96,0.00,CLR,,0.01,0.0,WeatherDisplay:10.37,2013-02-03 05:16:00,
2013-02-03 05:21:00,48.9,47.8,30.09,WSW,246,12.0,20.0,96,0.00,CLR,,0.01,0.0,WeatherDisplay:10.37,2013-02-03 05:21:00,
2013-02-03 05:31:00,48.9,47.8,30.08,WSW,251,12.0,18.0,96,0.00,CLR,,0.01,0.0,WeatherDisplay:10.37,2013-02-03 05:31:00,
2013-02-03 05:41:00,48.7,47.6,30.08,SW,235,12.0,20.0,96,0.00,CLR,,0.01,0.0,WeatherDisplay:10.37,2013-02-03 05:41:00,
2013-02-03 05:46:00,48.7,47.6,30.08,WSW,239,12.0,20.0,96,0.00,CLR,,0.01,0.0,WeatherDisplay:10.37,2013-02-03 05:46:00,
2013-02-03 05:51:00,48.7,47.7,30.08,WSW,242,13.0,18.0,96,0.00,CLR,,0.01,0.0,WeatherDisplay:10.37,2013-02-03 05:51:00,
2013-02-03 05:56:00,48.7,47.6,30.08,SW,236,15.0,20.0,96,0.00,CLR,,0.01,0.0,WeatherDisplay:10.37,2013-02-03 05:56:00,
2013-02-03 06:06:00,48.7,47.6,30.08,WSW,243,13.0,18.0,96,0.00,CLR,,0.01,0.0,WeatherDisplay:10.37,2013-02-03 06:06:00,
2013-02-03 06:11:00,48.6,47.5,30.08,WSW,238,10.0,20.0,96,0.00,CLR,,0.01,0.0,WeatherDisplay:10.37,2013-02-03 06:11:00,
2013-02-03 06:16:00,48.7,47.6,30.08,SW,236,12.0,18.0,96,0.00,CLR,,0.01,0.0,WeatherDisplay:10.37,2013-02-03 06:16:00,
2013-02-03 06:21:00,48.7,47.6,30.08,WSW,241,12.0,17.0,96,0.00,CLR,,0.01,0.0,WeatherDisplay:10.37,2013-02-03 06:21:00,
2013-02-03 06:31:00,48.7,47.6,30.08,WSW,256,14.0,17.0,96,0.00,CLR,,0.01,0.0,WeatherDisplay:10.37,2013-02-03 06:31:00,
2013-02-03 06:41:00,48.8,47.7,30.08,West,259,8.0,13.0,96,0.00,CLR,,0.01,0.0,WeatherDisplay:10.37,2013-02-03 06:41:00,
2013-02-03 06:46:00,48.8,47.7,30.08,WSW,255,8.0,15.0,96,0.00,CLR,,0.01,0.0,WeatherDisplay:10.37,2013-02-03 06:46:00,
2013-02-03 06:51:00,48.8,47.7,30.08,WSW,256,7.0,12.0,96,0.00,CLR,,0.01,0.0,WeatherDisplay:10.37,2013-02-03 06:51:00,
2013-02-03 07:01:00,48.8,47.7,30.09,West,265,7.0,12.0,96,0.00,CLR,,0.01,0.0,WeatherDisplay:10.37,2013-02-03 07:01:00,
2013-02-03 07:11:00,48.8,47.7,30.09,West,267,8.0,15.0,96,0.00,CLR,,0.01,0.0,WeatherDisplay:10.37,2013-02-03 07:11:00,
2013-02-03 07:16:00,48.8,47.7,30.09,West,273,7.0,14.0,96,0.00,CLR,,0.01,0.0,WeatherDisplay:10.37,2013-02-03 07:16:00,
2013-02-03 07:21:00,48.8,47.7,30.09,West,270,6.0,12.0,96,0.00,CLR,,0.01,0.0,WeatherDisplay:10.37,2013-02-03 07:21:00,
2013-02-03 07:26:00,48.8,47.7,30.09,West,266,7.0,12.0,96,0.00,CLR,,0.01,0.0,WeatherDisplay:10.37,2013-02-03 07:26:00,
2013-02-03 07:31:00,48.7,47.6,30.08,WSW,253,6.0,9.0,96,0.00,CLR,,0.01,0.0,WeatherDisplay:10.37,2013-02-03 07:31:00,
2013-02-03 07:41:00,48.6,47.5,30.08,WSW,246,6.0,13.0,96,0.00,CLR,,0.01,0.0,WeatherDisplay:10.37,2013-02-03 07:41:00,
2013-02-03 07:46:00,48.5,47.4,30.08,WSW,250,7.0,13.0,96,0.00,CLR,,0.01,0.0,WeatherDisplay:10.37,2013-02-03 07:46:00,
2013-02-03 07:51:00,48.4,47.3,30.09,West,259,6.0,10.0,96,0.00,CLR,,0.01,0.0,WeatherDisplay:10.37,2013-02-03 07:51:00,
2013-02-03 07:56:00,48.3,47.2,30.09,West,264,7.0,12.0,96,0.00,CLR,,0.01,0.0,WeatherDisplay:10.37,2013-02-03 07:56:00,
2013-02-03 08:01:00,48.3,47.2,30.09,West,265,6.0,12.0,96,0.00,OVC,,0.01,0.0,WeatherDisplay:10.37,2013-02-03 08:01:00,
2013-02-03 08:11:00,48.3,47.2,30.09,West,269,5.0,10.0,96,0.00,OVC,,0.01,0.0,WeatherDisplay:10.37,2013-02-03 08:11:00,
2013-02-03 08:16:00,48.3,47.2,30.08,West,272,5.0,13.0,96,0.00,OVC,,0.01,0.0,WeatherDisplay:10.37,2013-02-03 08:16:00,
2013-02-03 08:21:00,48.3,47.2,30.08,West,265,2.0,10.0,96,0.00,OVC,,0.01,0.0,WeatherDisplay:10.37,2013-02-03 08:21:00,
2013-02-03 08:31:00,48.3,47.2,30.09,SW,226,2.0,6.0,96,0.00,OVC,,0.01,0.0,WeatherDisplay:10.37,2013-02-03 08:31:00,
2013-02-03 08:41:00,48.4,47.3,30.08,WSW,248,7.0,12.0,96,0.00,BKN,,0.01,9.0,WeatherDisplay:10.37,2013-02-03 08:41:00,
2013-02-03 08:46:00,48.5,47.4,30.08,WSW,255,5.0,12.0,96,0.00,BKN,,0.01,11.0,WeatherDisplay:10.37,2013-02-03 08:46:00,
2013-02-03 08:56:00,48.6,47.5,30.08,WSW,245,8.0,18.0,96,0.00,BKN,,0.01,12.0,WeatherDisplay:10.37,2013-02-03 08:56:00,
2013-02-03 09:01:00,48.6,47.2,30.08,WSW,250,10.0,20.0,95,0.00,BKN,,0.01,11.0,WeatherDisplay:10.37,2013-02-03 09:01:00,
2013-02-03 09:11:00,48.6,47.2,30.07,WSW,246,13.0,20.0,95,0.00,BKN,,0.01,19.0,WeatherDisplay:10.37,2013-02-03 09:11:00,
2013-02-03 09:16:00,48.7,47.3,30.07,WSW,241,14.0,24.0,95,0.00,BKN,,0.01,26.0,WeatherDisplay:10.37,2013-02-03 09:16:00,
2013-02-03 09:21:00,48.8,47.4,30.07,WSW,240,14.0,21.0,95,0.00,BKN,,0.01,33.0,WeatherDisplay:10.37,2013-02-03 09:21:00,
2013-02-03 09:31:00,48.9,47.8,30.07,WSW,242,13.0,23.0,96,0.00,BKN,,0.01,51.0,WeatherDisplay:10.37,2013-02-03 09:31:00,
2013-02-03 09:41:00,49.0,47.9,30.08,WSW,244,14.0,24.0,96,0.00,BKN,,0.01,39.0,WeatherDisplay:10.37,2013-02-03 09:41:00,
2013-02-03 09:46:00,49.0,47.9,30.08,WSW,244,10.0,22.0,96,0.00,BKN,,0.01,37.0,WeatherDisplay:10.37,2013-02-03 09:46:00,
2013-02-03 09:51:00,49.1,48.0,30.07,WSW,241,12.0,20.0,96,0.00,BKN,,0.01,74.0,WeatherDisplay:10.37,2013-02-03 09:51:00,
2013-02-03 10:01:00,49.2,48.1,30.07,WSW,238,13.0,23.0,96,0.00,BKN,,0.01,58.0,WeatherDisplay:10.37,2013-02-03 10:01:00,
2013-02-03 10:11:00,49.1,47.8,30.07,SW,233,13.0,23.0,95,0.00,BKN,,0.01,47.0,WeatherDisplay:10.37,2013-02-03 10:11:00,
2013-02-03 10:16:00,49.1,47.8,30.07,SW,236,13.0,18.0,95,0.00,BKN,,0.01,47.0,WeatherDisplay:10.37,2013-02-03 10:16:00,
2013-02-03 10:21:00,49.1,47.7,30.07,WSW,240,12.0,18.0,95,0.00,BKN,,0.01,56.0,WeatherDisplay:10.37,2013-02-03 10:21:00,
2013-02-03 10:31:00,49.3,47.9,30.07,WSW,244,14.0,23.0,95,0.00,BKN,,0.01,83.0,WeatherDisplay:10.37,2013-02-03 10:31:00,
2013-02-03 10:41:00,49.4,48.1,30.07,WSW,243,12.0,20.0,95,0.00,BKN,,0.01,95.0,WeatherDisplay:10.37,2013-02-03 10:41:00,
2013-02-03 10:46:00,49.5,48.1,30.07,WSW,244,10.0,22.0,95,0.00,BKN,,0.01,109.0,WeatherDisplay:10.37,2013-02-03 10:46:00,
2013-02-03 10:51:00,49.6,48.2,30.06,WSW,244,10.0,20.0,95,0.00,BKN,,0.01,91.0,WeatherDisplay:10.37,2013-02-03 10:51:00,
2013-02-03 11:01:00,49.6,48.2,30.07,WSW,249,10.0,20.0,95,0.00,SCT,,0.01,142.0,WeatherDisplay:10.37,2013-02-03 11:01:00,
2013-02-03 11:11:00,49.8,48.4,30.07,WSW,244,13.0,20.0,95,0.00,SCT,,0.01,141.0,WeatherDisplay:10.37,2013-02-03 11:11:00,
2013-02-03 11:16:00,49.9,48.5,30.06,SW,236,13.0,20.0,95,0.00,SCT,,0.01,111.0,WeatherDisplay:10.37,2013-02-03 11:16:00,
2013-02-03 11:21:00,49.8,48.4,30.06,WSW,240,13.0,24.0,95,0.00,SCT,,0.01,135.0,WeatherDisplay:10.37,2013-02-03 11:21:00,
2013-02-03 11:31:00,50.0,48.3,30.06,WSW,237,14.0,20.0,94,0.00,SCT,,0.01,130.0,WeatherDisplay:10.37,2013-02-03 11:31:00,
2013-02-03 11:41:00,50.2,48.5,30.06,WSW,243,9.0,21.0,94,0.00,RA,,0.02,146.0,WeatherDisplay:10.37,2013-02-03 11:41:00,
2013-02-03 11:46:00,50.3,48.6,30.06,WSW,238,10.0,20.0,94,0.00,SCT,,0.02,193.0,WeatherDisplay:10.37,2013-02-03 11:46:00,
2013-02-03 11:51:00,50.4,48.8,30.06,SW,234,13.0,20.0,94,0.00,SCT,,0.02,213.0,WeatherDisplay:10.37,2013-02-03 11:51:00,
2013-02-03 12:01:00,50.8,49.1,30.07,WSW,237,10.0,22.0,94,0.00,CLR,,0.02,258.0,WeatherDisplay:10.37,2013-02-03 12:01:00,
2013-02-03 12:11:00,50.9,48.9,30.06,WSW,241,9.0,20.0,93,0.00,SCT,,0.02,118.0,WeatherDisplay:10.37,2013-02-03 12:11:00,
2013-02-03 12:16:00,50.8,48.8,30.05,WSW,238,9.0,20.0,93,0.00,SCT,,0.02,169.0,WeatherDisplay:10.37,2013-02-03 12:16:00,
2013-02-03 12:21:00,50.7,48.7,30.05,SW,235,9.0,20.0,93,0.00,SCT,,0.02,139.0,WeatherDisplay:10.37,2013-02-03 12:21:00,
2013-02-03 12:31:00,50.4,48.8,30.05,WSW,239,13.0,22.0,94,0.00,SCT,,0.02,181.0,WeatherDisplay:10.37,2013-02-03 12:31:00,
2013-02-03 12:41:00,50.5,48.8,30.05,WSW,249,10.0,17.0,94,0.00,SCT,,0.02,123.0,WeatherDisplay:10.37,2013-02-03 12:41:00,
2013-02-03 12:50:00,50.4,48.7,30.05,WSW,246,10.0,21.0,94,0.00,BKN,,0.02,76.0,WeatherDisplay:10.37,2013-02-03 12:50:00,
2013-02-03 13:00:00,50.2,48.5,30.04,WSW,242,13.0,24.0,94,0.00,BKN,,0.02,118.0,WeatherDisplay:10.37,2013-02-03 13:00:00,
2013-02-03 13:10:00,50.2,48.5,30.04,SW,236,10.0,20.0,94,0.00,BKN,,0.02,121.0,WeatherDisplay:10.37,2013-02-03 13:10:00,
2013-02-03 13:15:00,50.2,48.5,30.04,SW,233,15.0,21.0,94,0.00,BKN,,0.02,93.0,WeatherDisplay:10.37,2013-02-03 13:15:00,
2013-02-03 13:20:00,50.0,48.4,30.03,WSW,241,13.0,20.0,94,0.00,BKN,,0.02,95.0,WeatherDisplay:10.37,2013-02-03 13:20:00,
2013-02-03 13:30:00,49.9,48.5,30.03,WSW,240,9.0,22.0,95,0.00,BKN,,0.02,118.0,WeatherDisplay:10.37,2013-02-03 13:30:00,
2013-02-03 13:40:00,49.9,48.5,30.03,SW,234,15.0,22.0,95,0.00,BKN,,0.02,109.0,WeatherDisplay:10.37,2013-02-03 13:40:00,
2013-02-03 13:45:00,49.9,48.5,30.02,SW,234,14.0,20.0,95,0.00,BKN,,0.02,98.0,WeatherDisplay:10.37,2013-02-03 13:45:00,
2013-02-03 13:50:00,49.9,48.5,30.02,WSW,240,16.0,24.0,95,0.00,BKN,,0.02,125.0,WeatherDisplay:10.37,2013-02-03 13:50:00,
2013-02-03 14:00:00,50.0,48.6,30.02,WSW,243,13.0,20.0,95,0.00,BKN,,0.02,93.0,WeatherDisplay:10.37,2013-02-03 14:00:00,
2013-02-03 14:10:00,49.9,48.5,30.02,WSW,248,12.0,20.0,95,0.00,BKN,,0.02,54.0,WeatherDisplay:10.37,2013-02-03 14:10:00,
2013-02-03 14:15:00,49.9,48.5,30.02,WSW,242,14.0,24.0,95,0.00,BKN,,0.02,60.0,WeatherDisplay:10.37,2013-02-03 14:15:00,
2013-02-03 14:20:00,49.8,48.4,30.01,WSW,245,13.0,24.0,95,0.00,BKN,,0.02,67.0,WeatherDisplay:10.37,2013-02-03 14:20:00,
2013-02-03 14:30:00,49.8,48.4,30.01,WSW,245,13.0,22.0,95,0.00,BKN,,0.02,69.0,WeatherDisplay:10.37,2013-02-03 14:30:00,
2013-02-03 14:40:00,49.7,48.0,30.01,SW,236,16.0,25.0,94,0.00,BKN,,0.02,40.0,WeatherDisplay:10.37,2013-02-03 14:40:00,
2013-02-03 14:45:00,49.6,47.9,30.01,WSW,237,14.0,24.0,94,0.00,BKN,,0.02,42.0,WeatherDisplay:10.37,2013-02-03 14:45:00,
2013-02-03 14:50:00,49.5,48.1,30.01,WSW,243,12.0,24.0,95,0.00,BKN,,0.02,40.0,WeatherDisplay:10.37,2013-02-03 14:50:00,
2013-02-03 15:00:00,49.6,47.9,30.01,WSW,241,15.0,24.0,94,0.00,BKN,,0.02,67.0,WeatherDisplay:10.37,2013-02-03 15:00:00,
2013-02-03 15:10:00,49.6,47.9,30.01,WSW,246,14.0,27.0,94,0.00,BKN,,0.02,44.0,WeatherDisplay:10.37,2013-02-03 15:10:00,
2013-02-03 15:15:00,49.6,47.9,30.01,WSW,248,15.0,23.0,94,0.00,BKN,,0.02,39.0,WeatherDisplay:10.37,2013-02-03 15:15:00,
2013-02-03 15:20:00,49.6,47.9,30.00,WSW,245,17.0,26.0,94,0.00,BKN,,0.02,46.0,WeatherDisplay:10.37,2013-02-03 15:20:00,
2013-02-03 15:30:00,49.7,48.0,30.00,WSW,243,14.0,24.0,94,0.00,BKN,,0.02,49.0,WeatherDisplay:10.37,2013-02-03 15:30:00,
2013-02-03 15:40:00,49.7,48.0,30.00,WSW,244,16.0,24.0,94,0.00,BKN,,0.02,33.0,WeatherDisplay:10.37,2013-02-03 15:40:00,
2013-02-03 15:45:00,49.7,48.0,30.00,WSW,240,14.0,20.0,94,0.00,BKN,,0.02,26.0,WeatherDisplay:10.37,2013-02-03 15:45:00,
2013-02-03 15:50:00,49.7,48.0,30.00,WSW,241,14.0,24.0,94,0.00,BKN,,0.02,25.0,WeatherDisplay:10.37,2013-02-03 15:50:00,
2013-02-03 16:00:00,49.8,48.1,30.00,WSW,253,12.0,22.0,94,0.00,BKN,,0.02,21.0,WeatherDisplay:10.37,2013-02-03 16:00:00,
2013-02-03 16:10:00,49.8,47.9,30.00,WSW,253,10.0,18.0,93,0.00,BKN,,0.02,23.0,WeatherDisplay:10.37,2013-02-03 16:10:00,
2013-02-03 16:15:00,49.8,47.9,30.00,WSW,246,8.0,20.0,93,0.00,BKN,,0.02,32.0,WeatherDisplay:10.37,2013-02-03 16:15:00,
2013-02-03 16:20:00,49.8,47.9,30.00,WSW,242,12.0,15.0,93,0.00,BKN,,0.02,19.0,WeatherDisplay:10.37,2013-02-03 16:20:00,
2013-02-03 16:30:00,49.9,48.0,30.00,WSW,239,9.0,21.0,93,0.00,BKN,,0.02,25.0,WeatherDisplay:10.37,2013-02-03 16:30:00,
2013-02-03 16:40:00,49.9,48.0,30.00,WSW,239,12.0,18.0,93,0.00,SCT,,0.02,35.0,WeatherDisplay:10.37,2013-02-03 16:40:00,
2013-02-03 16:45:00,49.9,48.0,29.99,SW,233,10.0,14.0,93,0.00,BKN,,0.02,16.0,WeatherDisplay:10.37,2013-02-03 16:45:00,
2013-02-03 16:50:00,49.8,47.9,29.99,WSW,240,10.0,18.0,93,0.00,BKN,,0.02,9.0,WeatherDisplay:10.37,2013-02-03 16:50:00,
2013-02-03 17:00:00,49.7,47.8,29.99,SW,229,10.0,17.0,93,0.00,BKN,,0.02,7.0,WeatherDisplay:10.37,2013-02-03 17:00:00,
2013-02-03 17:10:00,49.7,47.8,29.99,WSW,238,10.0,18.0,93,0.00,BKN,,0.02,7.0,WeatherDisplay:10.37,2013-02-03 17:10:00,
2013-02-03 17:15:00,49.7,47.8,29.98,WSW,247,12.0,22.0,93,0.00,OVC,,0.02,0.0,WeatherDisplay:10.37,2013-02-03 17:15:00,
2013-02-03 17:20:00,49.7,47.8,29.98,WSW,240,10.0,18.0,93,0.00,OVC,,0.02,0.0,WeatherDisplay:10.37,2013-02-03 17:20:00,
2013-02-03 17:30:00,49.6,47.7,29.98,SW,233,14.0,21.0,93,0.00,OVC,,0.02,0.0,WeatherDisplay:10.37,2013-02-03 17:30:00,
2013-02-03 17:40:00,49.5,47.8,29.98,SW,232,12.0,20.0,94,0.00,OVC,,0.02,0.0,WeatherDisplay:10.37,2013-02-03 17:40:00,
2013-02-03 17:45:00,49.5,47.8,29.98,SW,234,14.0,22.0,94,0.00,OVC,,0.02,0.0,WeatherDisplay:10.37,2013-02-03 17:45:00,
2013-02-03 17:50:00,49.5,47.8,29.97,WSW,239,15.0,23.0,94,0.00,OVC,,0.02,0.0,WeatherDisplay:10.37,2013-02-03 17:50:00,
2013-02-03 18:00:00,49.4,47.7,29.97,SW,229,12.0,20.0,94,0.00,CLR,,0.02,0.0,WeatherDisplay:10.37,2013-02-03 18:00:00,
2013-02-03 18:10:00,49.3,47.9,29.96,SW,226,16.0,26.0,95,0.00,CLR,,0.02,0.0,WeatherDisplay:10.37,2013-02-03 18:10:00,
2013-02-03 18:15:00,49.3,47.6,29.96,SW,230,18.0,24.0,94,0.00,CLR,,0.02,0.0,WeatherDisplay:10.37,2013-02-03 18:15:00,
2013-02-03 18:25:00,49.4,47.7,29.95,SW,224,17.0,27.0,94,0.00,CLR,,0.02,0.0,WeatherDisplay:10.37,2013-02-03 18:25:00,
2013-02-03 18:30:00,49.5,47.8,29.95,SW,231,16.0,31.0,94,0.00,CLR,,0.02,0.0,WeatherDisplay:10.37,2013-02-03 18:30:00,
2013-02-03 18:40:00,49.6,47.9,29.95,SW,225,21.0,29.0,94,0.00,CLR,,0.02,0.0,WeatherDisplay:10.37,2013-02-03 18:40:00,
2013-02-03 18:45:00,49.8,48.1,29.95,SW,225,18.0,30.0,94,0.00,CLR,,0.02,0.0,WeatherDisplay:10.37,2013-02-03 18:45:00,
2013-02-03 18:50:00,49.8,48.1,29.95,SW,226,17.0,26.0,94,0.00,CLR,,0.02,0.0,WeatherDisplay:10.37,2013-02-03 18:50:00,
2013-02-03 18:55:00,49.8,48.1,29.95,SW,227,18.0,27.0,94,0.00,CLR,,0.02,0.0,WeatherDisplay:10.37,2013-02-03 18:55:00,
2013-02-03 19:00:00,49.7,48.1,29.96,SW,234,16.0,26.0,94,0.00,CLR,,0.02,0.0,WeatherDisplay:10.37,2013-02-03 19:00:00,
2013-02-03 19:10:00,49.5,48.1,29.95,SW,227,16.0,25.0,95,0.00,RA,,0.02,0.0,WeatherDisplay:10.37,2013-02-03 19:10:00,
2013-02-03 19:15:00,49.4,48.1,29.96,SW,225,18.0,26.0,95,0.00,,,0.02,0.0,WeatherDisplay:10.37,2013-02-03 19:15:00,
2013-02-03 19:20:00,49.5,48.1,29.97,SW,223,14.0,24.0,95,0.00,CLR,,0.02,0.0,WeatherDisplay:10.37,2013-02-03 19:20:00,
2013-02-03 19:30:00,49.5,48.1,29.96,SW,228,13.0,24.0,95,0.00,CLR,,0.02,0.0,WeatherDisplay:10.37,2013-02-03 19:30:00,
2013-02-03 19:40:00,49.4,48.0,29.96,SW,227,14.0,20.0,95,0.00,CLR,,0.02,0.0,WeatherDisplay:10.37,2013-02-03 19:40:00,
2013-02-03 19:45:00,49.4,48.0,29.95,SW,229,15.0,20.0,95,0.00,CLR,,0.02,0.0,WeatherDisplay:10.37,2013-02-03 19:45:00,
2013-02-03 19:50:00,49.4,48.0,29.95,SW,228,13.0,17.0,95,0.00,CLR,,0.02,0.0,WeatherDisplay:10.37,2013-02-03 19:50:00,
2013-02-03 20:00:00,49.4,48.0,29.95,SW,224,13.0,21.0,95,0.00,CLR,,0.02,0.0,WeatherDisplay:10.37,2013-02-03 20:00:00,
2013-02-03 20:10:00,49.2,47.8,29.94,SW,224,16.0,24.0,95,0.00,CLR,,0.02,0.0,WeatherDisplay:10.37,2013-02-03 20:10:00,
2013-02-03 20:15:00,49.3,47.9,29.94,SW,230,14.0,22.0,95,0.00,CLR,,0.02,0.0,WeatherDisplay:10.37,2013-02-03 20:15:00,
2013-02-03 20:20:00,49.2,47.8,29.94,SW,228,13.0,21.0,95,0.00,CLR,,0.02,0.0,WeatherDisplay:10.37,2013-02-03 20:20:00,
2013-02-03 20:25:00,49.2,47.8,29.94,SW,224,15.0,22.0,95,0.00,CLR,,0.02,0.0,WeatherDisplay:10.37,2013-02-03 20:25:00,
2013-02-03 20:30:00,49.3,47.9,29.94,SW,219,12.0,23.0,95,0.00,CLR,,0.02,0.0,WeatherDisplay:10.37,2013-02-03 20:30:00,
2013-02-03 20:40:00,49.3,47.9,29.93,SW,226,14.0,30.0,95,0.00,CLR,,0.02,0.0,WeatherDisplay:10.37,2013-02-03 20:40:00,
2013-02-03 20:45:00,49.3,47.9,29.94,SW,229,16.0,22.0,95,0.00,CLR,,0.02,0.0,WeatherDisplay:10.37,2013-02-03 20:45:00,
2013-02-03 20:50:00,49.3,47.9,29.94,SW,233,10.0,20.0,95,0.00,CLR,,0.02,0.0,WeatherDisplay:10.37,2013-02-03 20:50:00,
2013-02-03 21:00:00,49.2,47.9,29.93,SW,232,15.0,24.0,95,0.00,CLR,,0.02,0.0,WeatherDisplay:10.37,2013-02-03 21:00:00,
2013-02-03 21:10:00,49.2,48.1,29.94,SW,230,15.0,22.0,96,0.00,CLR,,0.02,0.0,WeatherDisplay:10.37,2013-02-03 21:10:00,
2013-02-03 21:15:00,49.3,48.2,29.93,SW,227,15.0,22.0,96,0.00,CLR,,0.02,0.0,WeatherDisplay:10.37,2013-02-03 21:15:00,
2013-02-03 21:20:00,49.3,48.2,29.93,SW,231,14.0,21.0,96,0.00,CLR,,0.02,0.0,WeatherDisplay:10.37,2013-02-03 21:20:00,
2013-02-03 21:30:00,49.3,48.2,29.93,SW,236,10.0,22.0,96,0.00,CLR,,0.02,0.0,WeatherDisplay:10.37,2013-02-03 21:30:00,
2013-02-03 21:40:00,49.4,48.3,29.93,SW,227,15.0,24.0,96,0.00,CLR,,0.02,0.0,WeatherDisplay:10.37,2013-02-03 21:40:00,
2013-02-03 21:45:00,49.4,48.3,29.92,SW,234,18.0,27.0,96,0.00,CLR,,0.02,0.0,WeatherDisplay:10.37,2013-02-03 21:45:00,
2013-02-03 21:50:00,49.4,48.3,29.92,SW,235,13.0,20.0,96,0.00,CLR,,0.02,0.0,WeatherDisplay:10.37,2013-02-03 21:50:00,
2013-02-03 21:55:00,49.5,48.4,29.92,WSW,237,17.0,25.0,96,0.00,CLR,,0.02,0.0,WeatherDisplay:10.37,2013-02-03 21:55:00,
2013-02-03 22:01:00,49.5,48.4,29.92,SW,232,13.0,24.0,96,0.00,CLR,,0.02,0.0,WeatherDisplay:10.37,2013-02-03 22:01:00,
2013-02-03 22:10:00,49.6,48.5,29.92,SW,228,13.0,22.0,96,0.00,CLR,,0.02,0.0,WeatherDisplay:10.37,2013-02-03 22:10:00,
2013-02-03 22:16:00,49.6,48.5,29.92,SW,230,14.0,24.0,96,0.00,CLR,,0.02,0.0,WeatherDisplay:10.37,2013-02-03 22:16:00,
2013-02-03 22:21:00,49.6,48.5,29.92,SW,230,14.0,22.0,96,0.00,CLR,,0.02,0.0,WeatherDisplay:10.37,2013-02-03 22:21:00,
2013-02-03 22:31:00,49.7,48.6,29.92,WSW,241,14.0,24.0,96,0.00,CLR,,0.02,0.0,WeatherDisplay:10.37,2013-02-03 22:31:00,
2013-02-03 22:36:00,49.7,48.6,29.92,SW,225,14.0,23.0,96,0.00,CLR,,0.02,0.0,WeatherDisplay:10.37,2013-02-03 22:36:00,
2013-02-03 22:46:00,49.7,48.6,29.91,WSW,241,12.0,25.0,96,0.01,RA,,0.03,0.0,WeatherDisplay:10.37,2013-02-03 22:46:00,
2013-02-03 22:51:00,49.7,48.6,29.91,SW,236,17.0,27.0,96,0.00,RA,,0.03,0.0,WeatherDisplay:10.37,2013-02-03 22:51:00,
2013-02-03 22:56:00,49.7,48.6,29.91,SW,234,17.0,30.0,96,0.00,,,0.03,0.0,WeatherDisplay:10.37,2013-02-03 22:56:00,
2013-02-03 23:01:00,49.7,48.4,29.91,SW,230,13.0,32.0,95,0.00,CLR,,0.03,0.0,WeatherDisplay:10.37,2013-02-03 23:01:00,
2013-02-03 23:11:00,49.4,48.0,29.92,WSW,257,15.0,26.0,95,0.00,CLR,,0.03,0.0,WeatherDisplay:10.37,2013-02-03 23:11:00,
2013-02-03 23:16:00,49.3,47.6,29.92,WSW,250,16.0,24.0,94,0.00,CLR,,0.03,0.0,WeatherDisplay:10.37,2013-02-03 23:16:00,
2013-02-03 23:21:00,49.1,47.4,29.93,WSW,252,15.0,22.0,94,0.00,CLR,,0.03,0.0,WeatherDisplay:10.37,2013-02-03 23:21:00,
2013-02-03 23:31:00,48.5,46.0,29.93,WSW,257,16.0,24.0,91,0.00,CLR,,0.03,0.0,WeatherDisplay:10.37,2013-02-03 23:31:00,
2013-02-03 23:41:00,47.7,44.1,29.94,West,259,12.0,29.0,87,0.00,RA,,0.04,0.0,WeatherDisplay:10.37,2013-02-03 23:41:00,
2013-02-03 23:46:00,47.4,43.5,29.94,West,260,14.0,24.0,86,0.00,,,0.04,0.0,WeatherDisplay:10.37,2013-02-03 23:46:00,
2013-02-03 23:51:00,47.1,43.1,29.94,West,260,10.0,23.0,86,0.00,CLR,,0.04,0.0,WeatherDisplay:10.37,2013-02-03 23:51:00,
2013-02-03 23:56:00,46.8,42.8,29.95,WSW,257,9.0,24.0,86,0.00,CLR,,0.04,0.0,WeatherDisplay:10.37,2013-02-03 23:56:00,